Time;durP1;ratioP1;P1;durP2;ratioP2;P2;SDS_P1;SDS_P2;PMS_P1;PMS_P2;Temp;Humidity;BMP_temperature;BMP_pressure;BME280_temperature;BME280_humidity;BME280_pressure;Samples;Min_cycle;Max_cycle;Signal;HPM_P1;HPM_P2
2021/03/21 00:04:15;;;;;;;7.17;2.23;;;;;;;;;;10217558;28;20026;-64
2021/03/21 00:09:13;;;;;;;7.55;1.88;;;;;;;;;;10223130;28;20507;-63
2021/03/21 00:14:10;;;;;;;4.97;2.17;;;;;;;;;;10225629;28;20038;-65
2021/03/21 00:19:08;;;;;;;5.87;2.03;;;;;;;;;;10192367;28;20093;-65
2021/03/21 00:24:06;;;;;;;9.05;2.80;;;;;;;;;;10201634;28;20035;-66
2021/03/21 00:29:05;;;;;;;5.57;2.80;;;;;;;;;;10212742;28;20038;-65
2021/03/21 00:34:03;;;;;;;7.05;3.63;;;;;;;;;;10212793;28;20042;-64
2021/03/21 00:39:01;;;;;;;9.07;3.92;;;;;;;;;;10229256;28;20046;-64
2021/03/21 00:43:58;;;;;;;9.17;3.50;;;;;;;;;;10222630;28;20118;-64
2021/03/21 00:48:55;;;;;;;8.13;3.63;;;;;;;;;;10227143;28;20514;-65
2021/03/21 00:53:53;;;;;;;9.13;3.37;;;;;;;;;;10197441;28;20122;-65
2021/03/21 00:58:50;;;;;;;11.67;3.70;;;;;;;;;;10214273;28;20496;-65
2021/03/21 01:03:48;;;;;;;11.27;3.63;;;;;;;;;;10217740;28;20040;-65
2021/03/21 01:08:45;;;;;;;13.10;3.80;;;;;;;;;;10228972;28;20120;-65
2021/03/21 01:13:43;;;;;;;10.20;3.50;;;;;;;;;;10225144;28;20092;-64
2021/03/21 01:18:41;;;;;;;9.40;2.28;;;;;;;;;;10216591;28;20030;-65
2021/03/21 01:23:39;;;;;;;5.77;2.23;;;;;;;;;;10218754;28;20069;-65
2021/03/21 01:28:36;;;;;;;8.35;3.33;;;;;;;;;;10230746;28;20041;-65
2021/03/21 01:33:34;;;;;;;11.73;3.00;;;;;;;;;;10207314;28;20053;-65
2021/03/21 01:38:32;;;;;;;7.87;2.00;;;;;;;;;;10209810;28;20501;-65
2021/03/21 01:43:31;;;;;;;4.30;1.77;;;;;;;;;;10225467;28;20034;-65
2021/03/21 01:48:47;;;;;;;7.68;2.67;;;;;;;;;;10244708;28;20411;-65
2021/03/21 01:53:45;;;;;;;7.28;2.38;;;;;;;;;;10216048;28;20046;-66
2021/03/21 01:58:42;;;;;;;;;;;;;;;;;;10221919;28;20121;-65
2021/03/21 02:03:40;;;;;;;5.30;2.80;;;;;;;;;;10213328;28;20019;-66
2021/03/21 02:08:46;;;;;;;3.50;1.43;;;;;;;;;;10221491;28;20393;-65
2021/03/21 02:13:49;;;;;;;6.80;2.13;;;;;;;;;;10223455;28;20403;-66
2021/03/21 02:18:53;;;;;;;16.38;2.03;;;;;;;;;;10227869;28;20037;-66
2021/03/21 02:24:02;;;;;;;4.15;1.40;;;;;;;;;;10205116;28;20037;-66
2021/03/21 02:29:09;;;;;;;10.27;2.05;;;;;;;;;;10209244;28;20048;-66
2021/03/21 02:34:09;;;;;;;5.53;1.35;;;;;;;;;;10224719;28;20041;-66
2021/03/21 02:39:10;;;;;;;6.45;2.15;;;;;;;;;;10211224;28;20100;-66
2021/03/21 02:44:09;;;;;;;5.00;1.25;;;;;;;;;;10213424;28;20126;-66
2021/03/21 02:49:16;;;;;;;13.93;1.98;;;;;;;;;;10212599;28;20042;-66
2021/03/21 02:54:16;;;;;;;6.78;1.98;;;;;;;;;;10216840;28;20405;-66
2021/03/21 02:59:15;;;;;;;5.70;1.77;;;;;;;;;;10222685;28;20117;-66
2021/03/21 03:04:14;;;;;;;12.88;2.92;;;;;;;;;;10231056;28;20033;-65
2021/03/21 03:09:17;;;;;;;11.40;2.22;;;;;;;;;;10212621;28;20045;-66
2021/03/21 03:14:16;;;;;;;6.45;1.80;;;;;;;;;;10218120;28;20034;-65
2021/03/21 03:19:21;;;;;;;11.45;2.72;;;;;;;;;;10201501;28;20129;-63
2021/03/21 03:24:28;;;;;;;4.55;1.65;;;;;;;;;;10222061;28;20471;-63
2021/03/21 03:29:32;;;;;;;7.75;2.22;;;;;;;;;;10217821;28;20054;-64
2021/03/21 03:34:31;;;;;;;14.73;2.33;;;;;;;;;;10206934;28;20141;-64
2021/03/21 03:39:28;;;;;;;10.45;2.60;;;;;;;;;;10225284;28;20031;-63
2021/03/21 03:44:38;;;;;;;7.90;1.30;;;;;;;;;;10215967;28;20041;-64
2021/03/21 03:49:42;;;;;;;8.15;1.83;;;;;;;;;;10198185;28;20393;-63
2021/03/21 03:54:47;;;;;;;3.67;1.48;;;;;;;;;;10208202;28;20518;-64
2021/03/21 04:00:06;;;;;;;13.63;2.45;;;;;;;;;;10235514;28;20529;-67
2021/03/21 04:05:17;;;;;;;9.32;1.80;;;;;;;;;;10240996;28;20649;-67
2021/03/21 04:10:17;;;;;;;15.20;2.00;;;;;;;;;;10227538;28;20050;-65
2021/03/21 04:15:20;;;;;;;6.28;1.48;;;;;;;;;;10214065;28;20121;-63
2021/03/21 04:20:24;;;;;;;12.57;2.80;;;;;;;;;;10221864;28;20523;-65
2021/03/21 04:25:25;;;;;;;12.25;1.95;;;;;;;;;;10204280;28;20026;-64
2021/03/21 04:30:31;;;;;;;17.33;3.33;;;;;;;;;;10207461;28;20128;-64
2021/03/21 04:35:31;;;;;;;19.00;2.80;;;;;;;;;;10221053;28;20053;-64
2021/03/21 04:40:30;;;;;;;8.48;2.35;;;;;;;;;;10209006;28;20039;-65
2021/03/21 04:45:32;;;;;;;19.42;3.60;;;;;;;;;;10213572;28;20479;-65
2021/03/21 04:50:31;;;;;;;4.82;1.92;;;;;;;;;;10224132;28;20093;-66
2021/03/21 04:55:28;;;;;;;;;;;;;;;;;;10222115;28;20039;-66
2021/03/21 05:00:33;;;;;;;19.50;3.28;;;;;;;;;;10205825;28;19945;-66
2021/03/21 05:05:33;;;;;;;23.25;3.85;;;;;;;;;;10205254;28;20027;-67
2021/03/21 05:10:39;;;;;;;16.63;3.95;;;;;;;;;;10222140;28;20042;-66
2021/03/21 05:15:56;;;;;;;26.23;5.20;;;;;;;;;;10217634;28;20045;-66
2021/03/21 05:20:54;;;;;;;28.90;4.72;;;;;;;;;;10201781;28;20500;-64
2021/03/21 05:25:58;;;;;;;25.57;4.57;;;;;;;;;;10207879;28;21000;-65
2021/03/21 05:30:56;;;;;;;27.45;4.95;;;;;;;;;;10195043;28;20124;-66
2021/03/21 05:35:55;;;;;;;18.47;2.87;;;;;;;;;;10213887;28;20033;-65
2021/03/21 05:41:10;;;;;;;28.33;4.57;;;;;;;;;;10200089;28;20037;-66
2021/03/21 05:46:14;;;;;;;28.15;4.50;;;;;;;;;;10210485;28;20030;-65
2021/03/21 05:51:24;;;;;;;34.88;4.85;;;;;;;;;;10219233;28;20497;-65
2021/03/21 05:56:21;;;;;;;31.27;5.18;;;;;;;;;;10208493;28;20042;-65
2021/03/21 06:01:36;;;;;;;26.37;4.00;;;;;;;;;;10218697;28;20054;-65
2021/03/21 06:06:34;;;;;;;24.45;5.03;;;;;;;;;;10212550;28;20035;-66
2021/03/21 06:11:49;;;;;;;21.70;4.40;;;;;;;;;;10210772;28;20049;-65
2021/03/21 06:17:05;;;;;;;25.52;5.45;;;;;;;;;;10203492;28;20416;-65
2021/03/21 06:22:21;;;;;;;24.35;3.85;;;;;;;;;;10204499;28;20039;-65
2021/03/21 06:27:27;;;;;;;32.65;5.15;;;;;;;;;;10226838;28;20432;-66
2021/03/21 06:32:36;;;;;;;35.25;5.90;;;;;;;;;;10209373;28;20062;-65
2021/03/21 06:37:33;;;;;;;35.47;6.07;;;;;;;;;;10217411;28;20408;-65
2021/03/21 06:42:50;;;;;;;32.07;5.93;;;;;;;;;;10223465;28;20073;-65
2021/03/21 06:48:19;;;;;;;37.33;5.70;;;;;;;;;;10221597;28;20471;-66
2021/03/21 06:53:23;;;;;;;22.40;4.63;;;;;;;;;;10186781;28;20042;-66
2021/03/21 06:58:35;;;;;;;28.60;4.90;;;;;;;;;;10204603;28;20047;-65
2021/03/21 07:03:41;;;;;;;30.95;4.80;;;;;;;;;;10203307;28;20050;-65
2021/03/21 07:08:57;;;;;;;27.80;5.07;;;;;;;;;;10204265;28;20430;-65
2021/03/21 07:14:10;;;;;;;23.40;4.70;;;;;;;;;;10206090;28;20462;-68
2021/03/21 07:19:26;;;;;;;26.65;4.95;;;;;;;;;;10197410;28;20045;-66
2021/03/21 07:24:23;;;;;;;27.38;4.85;;;;;;;;;;10208351;28;20031;-65
2021/03/21 07:29:32;;;;;;;19.30;4.70;;;;;;;;;;10206627;28;20507;-65
2021/03/21 07:34:30;;;;;;;29.40;5.13;;;;;;;;;;10218980;28;20049;-66
2021/03/21 07:39:46;;;;;;;27.03;5.93;;;;;;;;;;10205334;28;20057;-67
2021/03/21 07:45:02;;;;;;;24.48;5.25;;;;;;;;;;10227754;28;20046;-65
2021/03/21 07:50:02;;;;;;;17.02;4.72;;;;;;;;;;10194572;28;20396;-66
2021/03/21 07:55:18;;;;;;;27.20;5.00;;;;;;;;;;10205889;28;20030;-63
2021/03/21 08:00:16;;;;;;;34.15;4.35;;;;;;;;;;10204297;28;20038;-62
2021/03/21 08:05:16;;;;;;;34.83;5.07;;;;;;;;;;10171966;28;20093;-63
2021/03/21 08:10:16;;;;;;;32.50;4.95;;;;;;;;;;10216709;28;20031;-63
2021/03/21 08:15:14;;;;;;;39.67;6.65;;;;;;;;;;10210310;28;20034;-62
2021/03/21 08:20:20;;;;;;;29.23;5.03;;;;;;;;;;10181432;28;20036;-63
2021/03/21 08:25:23;;;;;;;29.08;5.43;;;;;;;;;;10208274;28;20041;-63
2021/03/21 08:30:22;;;;;;;33.30;6.65;;;;;;;;;;10175281;28;20044;-65
2021/03/21 08:35:22;;;;;;;28.10;6.47;;;;;;;;;;10211791;28;20041;-64
2021/03/21 08:40:19;;;;;;;21.20;5.43;;;;;;;;;;10207419;28;20038;-64
2021/03/21 08:45:19;;;;;;;21.07;3.60;;;;;;;;;;10213053;28;20037;-63
2021/03/21 08:50:28;;;;;;;33.45;6.45;;;;;;;;;;10200917;28;20034;-65
2021/03/21 08:55:25;;;;;;;;;;;;;;;;;;10200233;28;20031;-65
2021/03/21 09:00:25;;;;;;;39.83;7.10;;;;;;;;;;10200723;28;20284;-65
2021/03/21 09:05:23;;;;;;;31.30;6.10;;;;;;;;;;10183452;28;20826;-64
2021/03/21 09:10:24;;;;;;;30.50;4.93;;;;;;;;;;10204598;28;20109;-64
2021/03/21 09:15:32;;;;;;;32.33;6.32;;;;;;;;;;10165189;28;20417;-65
2021/03/21 09:20:31;;;;;;;26.63;5.90;;;;;;;;;;10184678;28;20078;-66
2021/03/21 09:25:31;;;;;;;22.60;4.75;;;;;;;;;;10186025;28;20049;-63
2021/03/21 09:30:34;;;;;;;19.02;3.95;;;;;;;;;;10196126;28;20042;-64
2021/03/21 09:35:34;;;;;;;29.75;6.30;;;;;;;;;;10194077;28;20050;-65
2021/03/21 09:40:34;;;;;;;36.35;5.78;;;;;;;;;;10184069;28;20055;-66
2021/03/21 09:45:31;;;;;;;22.50;5.75;;;;;;;;;;10203401;28;20030;-65
2021/03/21 09:50:39;;;;;;;31.37;5.33;;;;;;;;;;10201371;28;20039;-65
2021/03/21 09:55:47;;;;;;;28.48;4.75;;;;;;;;;;10211853;28;20050;-65
2021/03/21 10:00:50;;;;;;;24.38;5.82;;;;;;;;;;10205802;28;20087;-65
2021/03/21 10:05:54;;;;;;;22.80;5.25;;;;;;;;;;10214128;28;20076;-63
2021/03/21 10:10:57;;;;;;;22.70;4.65;;;;;;;;;;10198376;28;20552;-63
2021/03/21 10:16:10;;;;;;;24.23;4.68;;;;;;;;;;10229948;28;20037;-62
2021/03/21 10:21:08;;;;;;;32.95;5.45;;;;;;;;;;10204057;28;20497;-63
2021/03/21 10:26:06;;;;;;;23.33;5.77;;;;;;;;;;10208152;28;20404;-63
2021/03/21 10:31:26;;;;;;;21.98;4.22;;;;;;;;;;10210795;28;20058;-63
2021/03/21 10:36:42;;;;;;;28.63;5.10;;;;;;;;;;10224727;28;20034;-62
2021/03/21 10:41:58;;;;;;;22.27;4.80;;;;;;;;;;10211125;28;20842;-62
2021/03/21 10:46:55;;;;;;;19.92;3.28;;;;;;;;;;10204473;28;20045;-62
2021/03/21 10:52:05;;;;;;;27.53;4.50;;;;;;;;;;10208738;28;20031;-63
2021/03/21 10:57:22;;;;;;;33.33;5.97;;;;;;;;;;10214849;28;20114;-64
2021/03/21 11:02:21;;;;;;;25.70;4.43;;;;;;;;;;10203602;28;20081;-65
2021/03/21 11:07:19;;;;;;;18.17;5.07;;;;;;;;;;10196366;28;20038;-62
2021/03/21 11:12:16;;;;;;;19.70;3.83;;;;;;;;;;10179115;28;20038;-64
2021/03/21 11:17:18;;;;;;;20.70;4.30;;;;;;;;;;10209747;28;20455;-64
2021/03/21 11:22:25;;;;;;;18.98;2.78;;;;;;;;;;10209218;28;20061;-63
2021/03/21 11:27:30;;;;;;;16.77;2.42;;;;;;;;;;10189856;28;20374;-64
2021/03/21 11:32:29;;;;;;;20.42;2.72;;;;;;;;;;10219885;28;20050;-64
2021/03/21 11:37:31;;;;;;;14.73;2.95;;;;;;;;;;10180185;28;20046;-64
2021/03/21 11:42:33;;;;;;;19.92;3.15;;;;;;;;;;10215741;28;20107;-63
2021/03/21 11:47:32;;;;;;;23.05;4.15;;;;;;;;;;10202029;28;20155;-63
2021/03/21 11:52:29;;;;;;;22.47;3.47;;;;;;;;;;10204259;28;20042;-62
2021/03/21 11:57:41;;;;;;;19.83;2.97;;;;;;;;;;10205674;28;20062;-63
2021/03/21 12:02:47;;;;;;;27.95;4.03;;;;;;;;;;10205584;28;20100;-63
2021/03/21 12:07:44;;;;;;;22.98;2.97;;;;;;;;;;10202886;28;20070;-62
2021/03/21 12:12:43;;;;;;;14.30;2.40;;;;;;;;;;10182883;28;20071;-63
2021/03/21 12:17:41;;;;;;;27.15;4.20;;;;;;;;;;10212059;28;20645;-64
2021/03/21 12:22:39;;;;;;;15.27;2.80;;;;;;;;;;10208440;28;20035;-62
2021/03/21 12:27:38;;;;;;;15.10;3.85;;;;;;;;;;10208616;28;20404;-63
2021/03/21 12:32:36;;;;;;;;;;;;;;;;;;10223028;28;20116;-62
2021/03/21 12:37:46;;;;;;;14.68;3.75;;;;;;;;;;10193742;28;19953;-63
2021/03/21 12:42:46;;;;;;;19.10;3.30;;;;;;;;;;10215947;28;20542;-63
2021/03/21 12:47:56;;;;;;;14.57;3.70;;;;;;;;;;10216027;28;20113;-63
2021/03/21 12:52:54;;;;;;;18.60;3.45;;;;;;;;;;10203745;28;20045;-64
2021/03/21 12:57:52;;;;;;;23.38;4.65;;;;;;;;;;10222775;28;20041;-61
2021/03/21 13:02:52;;;;;;;13.05;3.03;;;;;;;;;;10232565;28;20046;-62
2021/03/21 13:07:50;;;;;;;17.52;3.35;;;;;;;;;;10232100;28;21028;-63
2021/03/21 13:12:47;;;;;;;15.43;3.57;;;;;;;;;;10239614;28;20053;-63
2021/03/21 13:17:46;;;;;;;17.67;4.03;;;;;;;;;;10240176;28;20049;-63
2021/03/21 13:22:43;;;;;;;18.60;3.33;;;;;;;;;;10236634;28;20404;-64
2021/03/21 13:27:41;;;;;;;12.10;4.10;;;;;;;;;;10232454;28;20030;-63
2021/03/21 13:32:38;;;;;;;14.03;2.37;;;;;;;;;;10236279;28;20044;-62
2021/03/21 13:37:35;;;;;;;12.97;2.33;;;;;;;;;;10244867;28;20042;-61
2021/03/21 13:42:33;;;;;;;22.03;3.67;;;;;;;;;;10248403;28;20045;-62
2021/03/21 13:47:30;;;;;;;9.50;1.90;;;;;;;;;;10241665;28;20046;-62
2021/03/21 13:52:28;;;;;;;13.70;3.40;;;;;;;;;;10245883;28;20092;-61
2021/03/21 13:57:25;;;;;;;14.17;3.37;;;;;;;;;;10240674;28;20667;-63
2021/03/21 14:02:23;;;;;;;13.33;3.33;;;;;;;;;;10247109;28;20037;-62
2021/03/21 14:07:20;;;;;;;15.13;3.47;;;;;;;;;;10247705;28;20045;-63
2021/03/21 14:12:17;;;;;;;6.20;2.67;;;;;;;;;;10213983;28;20047;-64
2021/03/21 14:17:15;;;;;;;15.17;4.30;;;;;;;;;;10214552;28;20045;-64
2021/03/21 14:22:12;;;;;;;15.53;3.07;;;;;;;;;;10212422;28;20129;-63
2021/03/21 14:27:09;;;;;;;13.07;3.27;;;;;;;;;;10216509;28;20042;-63
2021/03/21 14:32:07;;;;;;;12.97;2.83;;;;;;;;;;10219003;28;20134;-62
2021/03/21 14:37:05;;;;;;;9.20;2.47;;;;;;;;;;10214449;28;20074;-62
2021/03/21 14:42:02;;;;;;;10.27;2.47;;;;;;;;;;10200406;28;20325;-61
2021/03/21 14:47:00;;;;;;;8.90;2.20;;;;;;;;;;10202046;28;20030;-62
2021/03/21 14:51:57;;;;;;;6.33;1.90;;;;;;;;;;10217562;28;20053;-63
2021/03/21 14:56:55;;;;;;;14.83;2.60;;;;;;;;;;10209295;28;20033;-62
2021/03/21 15:01:52;;;;;;;12.83;3.03;;;;;;;;;;10204812;28;20042;-62
2021/03/21 15:06:49;;;;;;;11.67;2.93;;;;;;;;;;10202596;28;20042;-62
2021/03/21 15:11:47;;;;;;;20.67;3.57;;;;;;;;;;10197516;28;20038;-62
2021/03/21 15:16:44;;;;;;;9.23;1.47;;;;;;;;;;10224579;28;20034;-63
2021/03/21 15:21:42;;;;;;;2.30;1.20;;;;;;;;;;10199772;28;20047;-63
2021/03/21 15:26:39;;;;;;;25.37;6.13;;;;;;;;;;10206463;28;20041;-61
2021/03/21 15:31:38;;;;;;;34.63;9.13;;;;;;;;;;10191501;28;20026;-63
2021/03/21 15:36:36;;;;;;;15.23;3.92;;;;;;;;;;10163829;28;20026;-66
2021/03/21 15:41:33;;;;;;;18.13;5.80;;;;;;;;;;10163346;28;20097;-62
2021/03/21 15:46:31;;;;;;;12.53;3.73;;;;;;;;;;10147121;28;20136;-63
2021/03/21 15:51:29;;;;;;;12.43;2.60;;;;;;;;;;10150658;28;20034;-63
2021/03/21 15:56:27;;;;;;;7.35;1.92;;;;;;;;;;10147162;28;20105;-62
2021/03/21 16:01:25;;;;;;;14.75;2.53;;;;;;;;;;10147761;28;20034;-63
2021/03/21 16:06:22;;;;;;;10.90;2.13;;;;;;;;;;10156102;28;20038;-63
2021/03/21 16:11:20;;;;;;;14.47;3.23;;;;;;;;;;10155445;28;20124;-65
2021/03/21 16:16:17;;;;;;;12.57;2.50;;;;;;;;;;10147421;28;20468;-61
2021/03/21 16:21:16;;;;;;;13.37;2.37;;;;;;;;;;10138073;28;20046;-64
2021/03/21 16:26:13;;;;;;;;;;;;;;;;;;10136856;28;20039;-64
2021/03/21 16:31:11;;;;;;;15.77;2.00;;;;;;;;;;10152457;28;20426;-63
2021/03/21 16:36:08;;;;;;;14.40;2.23;;;;;;;;;;10159110;28;20039;-63
2021/03/21 16:41:06;;;;;;;13.37;2.83;;;;;;;;;;10167198;28;20248;-64
2021/03/21 16:46:05;;;;;;;19.80;3.43;;;;;;;;;;10160824;28;20127;-64
2021/03/21 16:51:04;;;;;;;14.05;1.75;;;;;;;;;;10142248;28;20042;-65
2021/03/21 16:56:01;;;;;;;5.18;1.90;;;;;;;;;;10153327;28;20085;-62
2021/03/21 17:00:59;;;;;;;19.60;2.67;;;;;;;;;;10150993;28;20483;-62
2021/03/21 17:05:56;;;;;;;7.50;2.47;;;;;;;;;;10166064;28;20089;-61
2021/03/21 17:10:55;;;;;;;21.57;2.00;;;;;;;;;;10205768;28;20047;-62
2021/03/21 17:15:52;;;;;;;;;;;;;;;;;;10207657;28;20038;-63
2021/03/21 17:20:50;;;;;;;11.15;2.63;;;;;;;;;;10209309;28;19933;-59
2021/03/21 17:25:51;;;;;;;25.52;3.67;;;;;;;;;;10191280;28;20051;-62
2021/03/21 17:30:49;;;;;;;13.27;3.22;;;;;;;;;;10172480;28;20046;-62
2021/03/21 17:35:47;;;;;;;14.23;2.83;;;;;;;;;;10203178;28;20034;-66
2021/03/21 17:40:45;;;;;;;12.15;2.08;;;;;;;;;;10205638;28;20034;-66
2021/03/21 17:45:44;;;;;;;14.60;2.40;;;;;;;;;;10209635;28;20475;-66
2021/03/21 17:50:43;;;;;;;13.27;2.55;;;;;;;;;;10205199;28;20519;-65
2021/03/21 17:55:40;;;;;;;14.68;3.28;;;;;;;;;;10199575;28;20030;-66
2021/03/21 18:00:37;;;;;;;11.70;1.80;;;;;;;;;;10207488;28;20034;-65
2021/03/21 18:05:35;;;;;;;5.70;1.43;;;;;;;;;;10210550;28;20048;-64
2021/03/21 18:10:32;;;;;;;15.00;2.33;;;;;;;;;;10204699;28;20556;-62
2021/03/21 18:15:30;;;;;;;11.77;2.80;;;;;;;;;;10199292;28;20051;-63
2021/03/21 18:20:27;;;;;;;22.52;3.08;;;;;;;;;;10206496;28;20038;-64
2021/03/21 18:25:26;;;;;;;20.40;2.73;;;;;;;;;;10202015;28;20034;-64
2021/03/21 18:30:25;;;;;;;14.88;3.17;;;;;;;;;;10204219;28;20067;-64
2021/03/21 18:35:23;;;;;;;9.80;2.80;;;;;;;;;;10206121;28;20129;-64
2021/03/21 18:40:27;;;;;;;14.63;2.93;;;;;;;;;;10214397;28;20142;-63
2021/03/21 18:45:26;;;;;;;26.05;2.78;;;;;;;;;;10216513;28;20367;-63
2021/03/21 18:50:24;;;;;;;24.55;3.28;;;;;;;;;;10158424;28;20070;-63
2021/03/21 18:55:21;;;;;;;18.67;2.35;;;;;;;;;;10194026;28;20509;-63
2021/03/21 19:00:19;;;;;;;22.37;3.33;;;;;;;;;;10197518;28;20124;-64
2021/03/21 19:05:18;;;;;;;13.93;2.93;;;;;;;;;;10229682;28;20511;-63
2021/03/21 19:10:19;;;;;;;10.27;2.55;;;;;;;;;;10192154;28;20035;-63
2021/03/21 19:15:17;;;;;;;12.55;3.50;;;;;;;;;;10189539;28;20045;-63
2021/03/21 19:20:16;;;;;;;10.63;2.23;;;;;;;;;;10205189;28;20042;-63
2021/03/21 19:25:13;;;;;;;;;;;;;;;;;;10187538;28;20440;-63
2021/03/21 19:30:15;;;;;;;9.98;2.95;;;;;;;;;;10178362;28;19925;-66
2021/03/21 19:35:14;;;;;;;10.90;1.92;;;;;;;;;;10198162;28;20089;-62
2021/03/21 19:40:13;;;;;;;9.70;2.90;;;;;;;;;;10193052;28;20062;-63
2021/03/21 19:45:12;;;;;;;11.05;2.65;;;;;;;;;;10203126;28;20037;-62
2021/03/21 19:50:12;;;;;;;24.17;2.80;;;;;;;;;;10195526;28;20164;-64
2021/03/21 19:55:10;;;;;;;11.48;2.67;;;;;;;;;;10197360;28;20046;-63
2021/03/21 20:00:08;;;;;;;15.35;3.25;;;;;;;;;;10178144;28;20081;-62
2021/03/21 20:05:11;;;;;;;16.60;3.22;;;;;;;;;;10173182;28;20508;-62
2021/03/21 20:10:11;;;;;;;11.88;2.40;;;;;;;;;;10178400;28;20506;-63
2021/03/21 20:15:08;;;;;;;9.98;2.17;;;;;;;;;;10172372;28;20440;-63
2021/03/21 20:20:09;;;;;;;13.68;2.28;;;;;;;;;;10180375;28;20038;-62
2021/03/21 20:25:06;;;;;;;8.93;1.75;;;;;;;;;;10176292;28;20042;-64
2021/03/21 20:30:05;;;;;;;22.47;3.20;;;;;;;;;;10196958;28;20613;-61
2021/03/21 20:35:03;;;;;;;8.85;1.63;;;;;;;;;;10179435;28;20035;-62
2021/03/21 20:40:00;;;;;;;6.35;2.13;;;;;;;;;;10185495;28;20030;-61
2021/03/21 20:44:58;;;;;;;12.77;2.27;;;;;;;;;;10179439;28;20030;-61
2021/03/21 20:49:55;;;;;;;9.70;1.83;;;;;;;;;;10174647;28;20070;-61
2021/03/21 20:54:52;;;;;;;13.57;3.03;;;;;;;;;;10162250;28;20075;-63
2021/03/21 20:59:50;;;;;;;10.80;2.40;;;;;;;;;;10183032;28;20058;-63
2021/03/21 21:04:47;;;;;;;12.23;2.47;;;;;;;;;;10175403;28;20133;-62
2021/03/21 21:09:45;;;;;;;3.53;0.40;;;;;;;;;;10209972;28;20039;-63
2021/03/21 21:14:43;;;;;;;14.70;2.43;;;;;;;;;;10197921;28;20045;-62
2021/03/21 21:19:40;;;;;;;4.17;1.10;;;;;;;;;;10194592;28;20104;-62
2021/03/21 21:24:37;;;;;;;9.53;1.40;;;;;;;;;;10214216;28;20088;-63
2021/03/21 21:29:35;;;;;;;14.13;1.70;;;;;;;;;;10232575;28;20051;-63
2021/03/21 21:34:32;;;;;;;9.40;1.57;;;;;;;;;;10168372;28;20049;-62
2021/03/21 21:39:30;;;;;;;6.77;1.83;;;;;;;;;;10195645;28;20050;-62
2021/03/21 21:44:27;;;;;;;15.47;3.10;;;;;;;;;;10193652;28;22107;-62
2021/03/21 21:49:27;;;;;;;3.77;1.67;;;;;;;;;;10179711;28;20501;-62
2021/03/21 21:54:25;;;;;;;6.57;1.10;;;;;;;;;;10176153;28;20053;-60
2021/03/21 21:59:22;;;;;;;3.90;1.17;;;;;;;;;;10179803;28;20093;-60
2021/03/21 22:04:20;;;;;;;21.77;3.43;;;;;;;;;;10196589;28;20830;-62
2021/03/21 22:09:17;;;;;;;15.50;1.57;;;;;;;;;;10180699;28;20059;-60
2021/03/21 22:14:15;;;;;;;10.27;2.07;;;;;;;;;;10165915;28;20050;-62
2021/03/21 22:19:14;;;;;;;14.45;2.17;;;;;;;;;;10176642;28;20038;-62
2021/03/21 22:24:12;;;;;;;12.27;1.43;;;;;;;;;;10187570;28;20069;-63
2021/03/21 22:29:09;;;;;;;13.37;2.53;;;;;;;;;;10194045;28;20031;-62
2021/03/21 22:34:08;;;;;;;13.20;2.37;;;;;;;;;;10187308;28;20047;-62
2021/03/21 22:39:06;;;;;;;16.27;1.95;;;;;;;;;;10199194;28;20055;-62
2021/03/21 22:44:04;;;;;;;9.65;1.63;;;;;;;;;;10186392;28;20042;-62
2021/03/21 22:49:02;;;;;;;6.73;0.70;;;;;;;;;;10170196;28;20034;-63
2021/03/21 22:53:59;;;;;;;9.57;1.53;;;;;;;;;;10178822;28;20523;-63
2021/03/21 22:58:57;;;;;;;14.83;2.30;;;;;;;;;;10179507;28;20137;-61
2021/03/21 23:03:54;;;;;;;10.87;2.07;;;;;;;;;;10176106;28;20035;-62
2021/03/21 23:08:53;;;;;;;4.87;1.43;;;;;;;;;;10191984;28;20026;-62
2021/03/21 23:13:50;;;;;;;18.38;1.83;;;;;;;;;;10172081;28;20464;-63
2021/03/21 23:18:48;;;;;;;5.07;1.47;;;;;;;;;;10204687;28;20156;-62
2021/03/21 23:23:45;;;;;;;8.67;2.43;;;;;;;;;;10208235;28;20054;-62
2021/03/21 23:28:43;;;;;;;4.60;1.40;;;;;;;;;;10202425;28;20036;-64
2021/03/21 23:33:40;;;;;;;13.37;2.17;;;;;;;;;;10211477;28;20069;-62
2021/03/21 23:38:37;;;;;;;6.53;1.40;;;;;;;;;;10222998;28;20038;-62
2021/03/21 23:43:35;;;;;;;5.03;1.13;;;;;;;;;;10210414;28;20034;-62
2021/03/21 23:48:32;;;;;;;4.43;1.23;;;;;;;;;;10210547;28;20038;-60
2021/03/21 23:53:30;;;;;;;9.30;1.50;;;;;;;;;;10230435;28;20092;-62
2021/03/21 23:58:28;;;;;;;10.15;1.20;;;;;;;;;;10222861;28;20037;-64
